Time;durP1;ratioP1;P1;durP2;ratioP2;P2;SDS_P1;SDS_P2;PMS_P1;PMS_P2;Temp;Humidity;BMP_temperature;BMP_pressure;BME280_temperature;BME280_humidity;BME280_pressure;Samples;Min_cycle;Max_cycle;Signal;HPM_P1;HPM_P2
2022/02/22 00:00:46;;;;;;;11.40;5.20;;;;;;;3.07;69.83;98596.50;89491;1278;83796;-81
2022/02/22 00:02:52;;;;;;;10.10;5.10;;;;;;;3.03;69.73;98594.14;89502;1277;97666;-80
2022/02/22 00:05:02;;;;;;;12.00;5.30;;;;;;;2.98;69.86;98599.35;89488;1278;88475;-63
2022/02/22 00:07:08;;;;;;;12.70;4.50;;;;;;;2.93;69.86;98605.81;89473;1278;95607;-64
2022/02/22 00:09:13;;;;;;;12.10;5.10;;;;;;;2.88;69.93;98605.89;89480;1278;79669;-82
2022/02/22 00:11:22;;;;;;;12.80;4.70;;;;;;;2.91;69.87;98608.59;89466;1278;80177;-81
2022/02/22 00:13:28;;;;;;;10.20;4.20;;;;;;;2.98;70.21;98616.29;89480;1278;98598;-81
2022/02/22 00:15:37;;;;;;;10.70;4.30;;;;;;;3.06;70.11;98614.29;89500;1278;86617;-80
2022/02/22 00:17:45;;;;;;;12.10;4.40;;;;;;;3.16;70.10;98610.94;89453;1278;95624;-78
2022/02/22 00:19:53;;;;;;;10.30;4.50;;;;;;;3.27;70.09;98612.95;89459;1278;77795;-63
2022/02/22 00:22:05;;;;;;;13.60;5.00;;;;;;;3.34;70.14;98614.04;89504;1278;82380;-63
2022/02/22 00:24:14;;;;;;;12.00;4.40;;;;;;;3.40;69.93;98611.23;89290;1279;98936;-81
2022/02/22 00:26:20;;;;;;;11.10;4.30;;;;;;;3.45;69.83;98612.66;89489;1279;86836;-81
2022/02/22 00:28:29;;;;;;;12.50;4.50;;;;;;;3.49;69.69;98622.64;89489;1278;93982;-81
2022/02/22 00:30:34;;;;;;;12.20;4.50;;;;;;;3.50;69.74;98621.21;89362;1279;78380;-64
2022/02/22 00:32:43;;;;;;;9.90;4.40;;;;;;;3.54;69.65;98623.80;89414;1279;80526;-64
2022/02/22 00:34:52;;;;;;;10.50;5.00;;;;;;;3.55;69.53;98617.77;89423;1279;99776;-80
2022/02/22 00:36:58;;;;;;;9.80;4.40;;;;;;;3.56;69.74;98621.00;89446;1279;89079;-80
2022/02/22 00:39:06;;;;;;;15.20;4.70;;;;;;;3.56;69.70;98622.44;89430;1278;93546;-81
2022/02/22 00:41:11;;;;;;;11.30;4.70;;;;;;;3.57;69.57;98623.64;89407;1279;77619;-80
2022/02/22 00:43:20;;;;;;;10.50;4.90;;;;;;;3.57;69.50;98623.17;89428;1279;81233;-81
2022/02/22 00:45:29;;;;;;;9.30;4.60;;;;;;;3.59;69.50;98619.27;89426;1279;99882;-64
2022/02/22 00:47:37;;;;;;;9.00;4.10;;;;;;;3.60;69.71;98620.91;89295;1279;88999;-64
2022/02/22 00:49:47;;;;;;;10.30;4.10;;;;;;;3.61;69.56;98620.63;89304;1281;94352;-64
2022/02/22 00:51:54;;;;;;;10.00;4.00;;;;;;;3.62;69.38;98619.98;89422;1279;80399;-64
2022/02/22 00:54:03;;;;;;;11.40;4.30;;;;;;;3.66;69.71;98623.60;89317;1279;79786;-79
2022/02/22 00:56:22;;;;;;;11.80;4.20;;;;;;;3.70;69.44;98623.24;89408;1279;100338;-81
2022/02/22 00:58:29;;;;;;;8.30;4.10;;;;;;;3.75;69.56;98631.14;89398;1279;87613;-78
2022/02/22 01:00:39;;;;;;;11.90;4.60;;;;;;;3.80;69.65;98629.48;89401;1279;95262;-81
2022/02/22 01:02:47;;;;;;;10.10;5.00;;;;;;;3.86;69.59;98636.39;89463;1278;77878;-79
2022/02/22 01:04:54;;;;;;;11.80;4.00;;;;;;;3.89;69.70;98639.35;89497;1278;80833;-63
2022/02/22 01:07:00;;;;;;;10.90;4.00;;;;;;;3.90;69.60;98639.36;89495;1278;99648;-63
2022/02/22 01:09:09;;;;;;;9.50;4.00;;;;;;;3.92;69.58;98645.14;89481;1278;88236;-62
2022/02/22 01:11:15;;;;;;;12.30;4.20;;;;;;;3.93;69.35;98642.74;89466;1278;95872;-63
2022/02/22 01:13:23;;;;;;;10.90;4.20;;;;;;;3.93;69.69;98645.30;89491;1278;77427;-63
2022/02/22 01:15:34;;;;;;;10.50;3.70;;;;;;;3.92;69.68;98644.44;89480;1278;82539;-63
2022/02/22 01:17:40;;;;;;;12.30;4.40;;;;;;;3.91;69.75;98649.23;89477;1278;98535;-63
2022/02/22 01:19:49;;;;;;;9.50;4.00;;;;;;;3.90;69.73;98652.63;89460;1278;87482;-63
2022/02/22 01:21:55;;;;;;;8.60;3.70;;;;;;;3.88;69.95;98661.77;89484;1277;94550;-64
2022/02/22 01:24:01;;;;;;;7.70;3.10;;;;;;;3.86;69.82;98667.46;89433;1278;79355;-80
2022/02/22 01:26:09;;;;;;;11.80;3.60;;;;;;;3.85;70.16;98673.31;89432;1279;81068;-79
2022/02/22 01:28:15;;;;;;;10.40;3.50;;;;;;;3.84;70.22;98671.10;89396;1279;98866;-80
2022/02/22 01:30:25;;;;;;;9.40;3.60;;;;;;;3.85;70.36;98669.02;89426;1279;87962;-80
2022/02/22 01:32:34;;;;;;;8.60;3.90;;;;;;;3.88;70.65;98665.84;89391;1279;96247;-78
2022/02/22 01:34:43;;;;;;;10.30;3.70;;;;;;;3.92;70.77;98668.70;89404;1279;81229;-79
2022/02/22 01:36:49;;;;;;;9.10;3.60;;;;;;;3.94;70.95;98671.61;89406;1279;82453;-80
2022/02/22 01:38:57;;;;;;;8.60;3.20;;;;;;;4.00;71.01;98676.27;89404;1279;99717;-62
2022/02/22 01:41:07;;;;;;;9.20;4.10;;;;;;;4.04;70.94;98678.08;89408;1279;88619;-62
2022/02/22 01:43:12;;;;;;;7.70;3.10;;;;;;;4.07;71.23;98676.27;89427;1279;94293;-62
2022/02/22 01:45:24;;;;;;;7.30;3.10;;;;;;;4.11;71.37;98679.11;89400;1279;77617;-79
2022/02/22 01:47:30;;;;;;;8.00;3.40;;;;;;;4.16;71.25;98687.23;89397;1279;82589;-80
2022/02/22 01:49:38;;;;;;;8.60;3.80;;;;;;;4.21;71.42;98687.59;89454;1279;97640;-62
2022/02/22 01:51:44;;;;;;;6.90;3.20;;;;;;;4.22;71.37;98683.70;89309;1279;87398;-63
2022/02/22 01:53:49;;;;;;;7.20;3.10;;;;;;;4.22;71.45;98680.61;89400;1279;94075;-80
2022/02/22 01:55:55;;;;;;;6.20;3.10;;;;;;;4.21;71.56;98678.16;89419;1280;77947;-82
2022/02/22 01:58:01;;;;;;;7.20;2.80;;;;;;;4.20;71.80;98686.50;89420;1279;84027;-81
2022/02/22 02:00:12;;;;;;;7.30;2.90;;;;;;;4.17;71.87;98684.38;89385;1279;97944;-81
2022/02/22 02:02:17;;;;;;;7.80;2.80;;;;;;;4.18;71.84;98687.92;89425;1279;87300;-81
2022/02/22 02:04:28;;;;;;;8.10;3.30;;;;;;;4.17;71.95;98685.67;89415;1279;95879;-64
2022/02/22 02:06:35;;;;;;;8.30;3.10;;;;;;;4.17;72.25;98684.80;89405;1279;81116;-63
2022/02/22 02:08:40;;;;;;;6.00;2.70;;;;;;;4.17;72.43;98686.15;89439;1279;82991;-81
2022/02/22 02:10:46;;;;;;;8.40;2.70;;;;;;;4.17;72.61;98686.33;89415;1279;99900;-81
2022/02/22 02:12:55;;;;;;;5.90;2.60;;;;;;;4.14;72.72;98683.71;89432;1279;88817;-81
2022/02/22 02:15:00;;;;;;;4.80;2.40;;;;;;;4.16;72.81;98688.91;89399;1279;95980;-83
2022/02/22 02:17:07;;;;;;;5.70;2.30;;;;;;;4.15;72.82;98689.63;89427;1279;79651;-81
2022/02/22 02:19:15;;;;;;;8.10;2.60;;;;;;;4.15;72.82;98696.45;89423;1279;81105;-63
2022/02/22 02:21:21;;;;;;;6.80;2.90;;;;;;;4.14;72.96;98701.27;89253;1279;100289;-64
2022/02/22 02:23:29;;;;;;;8.40;2.90;;;;;;;4.16;73.00;98702.55;89426;1279;88842;-63
2022/02/22 02:25:38;;;;;;;7.50;3.10;;;;;;;4.16;73.03;98703.23;89431;1279;94055;-79
2022/02/22 02:27:46;;;;;;;7.60;2.90;;;;;;;4.19;73.07;98705.95;89322;1279;77702;-80
2022/02/22 02:29:54;;;;;;;6.60;3.30;;;;;;;4.18;73.17;98710.29;89426;1279;81163;-79
2022/02/22 02:32:04;;;;;;;7.10;3.50;;;;;;;4.18;73.22;98713.34;89428;1279;99057;-81
2022/02/22 02:34:11;;;;;;;6.10;3.30;;;;;;;4.16;73.34;98715.00;89420;1279;86529;-64
2022/02/22 02:36:17;;;;;;;5.50;2.70;;;;;;;4.16;73.46;98716.77;89415;1279;94476;-63
2022/02/22 02:38:23;;;;;;;6.20;2.80;;;;;;;4.15;73.49;98720.54;89425;1279;79461;-64
2022/02/22 02:40:31;;;;;;;7.00;2.80;;;;;;;4.14;73.74;98727.36;89434;1279;79680;-63
2022/02/22 02:42:41;;;;;;;6.20;3.00;;;;;;;4.14;73.66;98730.74;89400;1279;97933;-63
2022/02/22 02:44:49;;;;;;;10.30;4.10;;;;;;;4.16;73.83;98728.33;89432;1279;89076;-80
2022/02/22 02:46:55;;;;;;;5.40;2.60;;;;;;;4.21;74.11;98732.64;89414;1279;94331;-80
2022/02/22 02:49:00;;;;;;;5.40;2.70;;;;;;;4.25;74.05;98730.92;89348;1279;80995;-64
2022/02/22 02:51:06;;;;;;;6.40;2.90;;;;;;;4.28;74.13;98740.36;89393;1279;81077;-63
2022/02/22 02:53:11;;;;;;;6.30;2.80;;;;;;;4.31;73.99;98743.90;89397;1279;99938;-63
2022/02/22 02:55:17;;;;;;;4.60;2.40;;;;;;;4.33;74.14;98743.93;89397;1280;89249;-63
2022/02/22 02:57:23;;;;;;;6.10;2.60;;;;;;;4.35;74.21;98750.20;89343;1279;94474;-63
2022/02/22 02:59:28;;;;;;;7.00;2.80;;;;;;;4.38;74.04;98748.67;89359;1279;77379;-80
2022/02/22 03:01:36;;;;;;;6.00;3.20;;;;;;;4.36;74.05;98749.59;89293;1279;83595;-80
2022/02/22 03:03:42;;;;;;;5.10;2.50;;;;;;;4.35;74.29;98751.84;89414;1279;99341;-63
2022/02/22 03:05:47;;;;;;;6.50;2.80;;;;;;;4.36;74.25;98748.53;89436;1278;89301;-63
2022/02/22 03:07:59;;;;;;;5.90;2.80;;;;;;;4.37;74.23;98757.21;89475;1277;94383;-63
2022/02/22 03:10:06;;;;;;;6.10;2.80;;;;;;;4.35;74.33;98758.00;89484;1278;79037;-80
2022/02/22 03:12:12;;;;;;;5.30;3.00;;;;;;;4.32;74.47;98761.02;89503;1277;83354;-80
2022/02/22 03:14:18;;;;;;;6.20;2.70;;;;;;;4.28;74.55;98761.64;89500;1278;99686;-63
2022/02/22 03:16:23;;;;;;;5.40;3.00;;;;;;;4.28;74.46;98771.30;89490;1278;87981;-63
2022/02/22 03:18:32;;;;;;;5.40;3.40;;;;;;;4.26;74.63;98768.77;89486;1277;95624;-71
2022/02/22 03:20:41;;;;;;;5.20;2.50;;;;;;;4.23;74.75;98773.67;89531;1277;80254;-79
2022/02/22 03:22:47;;;;;;;5.80;2.90;;;;;;;4.22;75.03;98773.48;89549;1277;79583;-79
2022/02/22 03:24:53;;;;;;;5.10;2.50;;;;;;;4.23;75.06;98776.55;89536;1278;99776;-79
2022/02/22 03:27:01;;;;;;;4.10;2.40;;;;;;;4.23;75.25;98776.70;89479;1277;88538;-79
2022/02/22 03:29:10;;;;;;;4.00;2.50;;;;;;;4.23;75.25;98783.12;89477;1277;95891;-79
2022/02/22 03:31:18;;;;;;;4.70;2.30;;;;;;;4.25;75.30;98782.24;89503;1278;80421;-79
2022/02/22 03:33:24;;;;;;;4.30;2.60;;;;;;;4.24;75.43;98788.73;89505;1277;84449;-79
2022/02/22 03:35:30;;;;;;;5.20;2.50;;;;;;;4.26;75.31;98790.39;89516;1277;99059;-79
2022/02/22 03:37:36;;;;;;;4.00;2.30;;;;;;;4.25;75.64;98793.06;87172;1277;3066620;-79
2022/02/22 03:39:41;;;;;;;4.40;2.50;;;;;;;4.25;75.67;98791.81;89503;1277;96072;-64
2022/02/22 03:41:47;;;;;;;4.20;2.30;;;;;;;4.23;75.72;98794.72;89496;1277;79787;-63
2022/02/22 03:43:53;;;;;;;5.80;2.30;;;;;;;4.25;75.79;98798.98;89498;1278;80841;-79
2022/02/22 03:46:01;;;;;;;5.30;2.40;;;;;;;4.27;75.58;98812.23;89500;1277;99798;-79
2022/02/22 03:48:10;;;;;;;4.00;2.20;;;;;;;4.28;75.85;98807.98;89422;1279;87547;-80
2022/02/22 03:50:17;;;;;;;3.40;2.50;;;;;;;4.28;76.00;98812.46;89506;1277;94530;-79
2022/02/22 03:52:24;;;;;;;7.50;2.80;;;;;;;4.27;75.83;98816.18;89513;1277;77316;-80
2022/02/22 03:54:32;;;;;;;4.00;2.30;;;;;;;4.23;75.94;98831.31;89528;1278;83165;-80
2022/02/22 03:56:38;;;;;;;3.90;2.80;;;;;;;4.22;75.55;98834.39;89376;1278;99718;-76
2022/02/22 03:58:47;;;;;;;4.60;2.10;;;;;;;4.22;75.75;98835.32;89505;1277;89234;-80
2022/02/22 04:00:52;;;;;;;4.70;2.40;;;;;;;4.17;75.60;98838.35;89506;1277;92696;-79
2022/02/22 04:02:59;;;;;;;6.10;2.20;;;;;;;4.13;75.76;98844.14;89511;1277;80143;-80
2022/02/22 04:05:11;;;;;;;3.50;1.80;;;;;;;4.10;75.66;98844.92;89399;1280;82646;-79
2022/02/22 04:07:20;;;;;;;3.70;1.80;;;;;;;4.08;75.63;98851.36;89480;1277;99807;-79
2022/02/22 04:09:29;;;;;;;3.40;1.50;;;;;;;4.04;75.56;98857.42;89540;1277;86548;-79
2022/02/22 04:11:34;;;;;;;5.50;1.90;;;;;;;4.03;75.79;98857.30;89471;1277;95166;-80
2022/02/22 04:13:43;;;;;;;3.50;1.90;;;;;;;4.05;75.52;98859.08;89473;1277;79132;-79
2022/02/22 04:15:49;;;;;;;4.90;2.30;;;;;;;4.06;75.65;98860.25;89507;1277;81905;-79
2022/02/22 04:17:56;;;;;;;4.10;1.80;;;;;;;4.06;75.44;98862.73;89492;1277;99146;-81
2022/02/22 04:20:03;;;;;;;3.40;1.60;;;;;;;4.09;75.68;98862.88;89479;1277;88147;-81
2022/02/22 04:22:08;;;;;;;4.20;1.60;;;;;;;4.11;75.61;98866.20;89482;1278;95782;-82
2022/02/22 04:24:14;;;;;;;3.90;1.80;;;;;;;4.13;75.46;98866.63;89494;1277;79771;-63
2022/02/22 04:26:20;;;;;;;3.00;1.60;;;;;;;4.16;75.39;98869.96;89505;1278;80482;-64
2022/02/22 04:28:26;;;;;;;4.30;2.20;;;;;;;4.18;75.35;98873.52;89490;1278;98877;-64
2022/02/22 04:30:32;;;;;;;5.70;2.10;;;;;;;4.19;75.20;98877.73;89528;1277;88953;-63
2022/02/22 04:32:38;;;;;;;4.60;2.20;;;;;;;4.20;75.22;98878.65;89500;1277;95387;-64
2022/02/22 04:34:43;;;;;;;5.30;1.70;;;;;;;4.21;75.31;98881.45;89523;1277;79559;-64
2022/02/22 04:36:52;;;;;;;4.90;2.00;;;;;;;4.18;75.20;98883.66;89559;1277;81660;-64
2022/02/22 04:39:02;;;;;;;4.90;1.70;;;;;;;4.15;75.12;98885.27;89533;1277;99399;-64
2022/02/22 04:41:08;;;;;;;4.80;1.60;;;;;;;4.12;75.05;98886.75;89521;1277;86778;-63
2022/02/22 04:43:13;;;;;;;5.80;1.70;;;;;;;4.10;74.91;98895.49;89519;1277;95588;-63
2022/02/22 04:45:23;;;;;;;4.70;1.80;;;;;;;4.09;75.26;98900.61;89504;1277;78741;-81
2022/02/22 04:47:29;;;;;;;4.50;1.70;;;;;;;4.09;75.28;98896.95;89518;1277;80016;-80
2022/02/22 04:49:37;;;;;;;3.90;1.60;;;;;;;4.11;75.18;98904.17;89523;1277;98554;-80
2022/02/22 04:51:44;;;;;;;4.30;1.90;;;;;;;4.13;75.28;98903.71;89563;1277;86166;-81
2022/02/22 04:53:50;;;;;;;4.00;1.80;;;;;;;4.14;75.10;98902.00;89533;1277;95742;-64
2022/02/22 04:56:00;;;;;;;9.40;3.80;;;;;;;4.18;75.14;98906.83;89540;1277;77586;-64
2022/02/22 04:58:09;;;;;;;7.80;2.40;;;;;;;4.23;75.21;98914.70;89561;1277;83013;-63
2022/02/22 05:00:19;;;;;;;6.10;2.10;;;;;;;4.24;75.25;98913.69;89361;1280;98694;-64
2022/02/22 05:02:28;;;;;;;6.70;2.30;;;;;;;4.24;75.33;98911.10;89548;1277;89179;-63
2022/02/22 05:04:33;;;;;;;6.80;2.40;;;;;;;4.26;75.12;98919.27;89509;1277;95990;-63
2022/02/22 05:06:39;;;;;;;5.40;2.50;;;;;;;4.25;75.16;98920.73;89522;1277;78564;-63
2022/02/22 05:08:48;;;;;;;5.50;2.50;;;;;;;4.23;75.24;98922.48;89533;1277;83313;-62
2022/02/22 05:10:53;;;;;;;8.50;2.50;;;;;;;4.19;75.18;98925.41;89531;1277;99632;-61
2022/02/22 05:12:59;;;;;;;4.70;2.80;;;;;;;4.17;75.15;98929.25;89561;1277;86440;-61
2022/02/22 05:15:06;;;;;;;5.20;2.30;;;;;;;4.18;75.17;98934.77;89518;1277;95750;-77
2022/02/22 05:17:11;;;;;;;6.50;2.50;;;;;;;4.20;75.20;98937.43;89519;1277;79450;-78
2022/02/22 05:19:20;;;;;;;5.50;2.70;;;;;;;4.24;75.25;98942.30;89576;1277;81135;-61
2022/02/22 05:21:29;;;;;;;3.70;1.70;;;;;;;4.29;75.19;98944.59;89526;1277;100009;-61
2022/02/22 05:23:35;;;;;;;6.20;2.50;;;;;;;4.33;75.20;98946.41;89540;1277;88455;-78
2022/02/22 05:25:44;;;;;;;4.30;2.40;;;;;;;4.35;75.31;98951.50;89541;1277;95177;-79
2022/02/22 05:27:50;;;;;;;4.00;1.80;;;;;;;4.36;75.14;98956.88;89530;1277;77001;-78
2022/02/22 05:29:56;;;;;;;5.20;1.60;;;;;;;4.34;75.17;98959.50;89552;1277;80474;-61
2022/02/22 05:32:02;;;;;;;5.50;1.90;;;;;;;4.32;75.14;98969.51;89531;1277;97564;-61
2022/02/22 05:34:08;;;;;;;6.20;2.00;;;;;;;4.28;75.39;98969.39;89546;1277;87470;-62
2022/02/22 05:36:18;;;;;;;5.60;1.70;;;;;;;4.26;75.16;98973.91;89542;1277;95232;-62
2022/02/22 05:38:23;;;;;;;4.80;2.00;;;;;;;4.26;75.16;98977.77;89569;1277;78522;-61
2022/02/22 05:40:32;;;;;;;4.30;1.90;;;;;;;4.25;75.17;98987.06;89575;1277;80877;-64
2022/02/22 05:42:38;;;;;;;5.60;2.00;;;;;;;4.26;75.30;98992.66;89558;1277;99109;-77
2022/02/22 05:44:46;;;;;;;5.40;1.70;;;;;;;4.29;75.32;98995.50;89574;1277;87102;-65
2022/02/22 05:46:54;;;;;;;5.60;1.60;;;;;;;4.33;75.41;98999.07;89552;1277;95906;-65
2022/02/22 05:49:03;;;;;;;4.60;1.80;;;;;;;4.39;75.36;98999.30;89577;1277;78151;-65
2022/02/22 05:51:09;;;;;;;6.20;1.80;;;;;;;4.42;75.54;99000.66;89560;1277;81251;-62
2022/02/22 05:53:15;;;;;;;8.20;2.00;;;;;;;4.45;75.19;99013.10;89583;1277;100066;-62
2022/02/22 05:55:23;;;;;;;4.20;1.90;;;;;;;4.49;75.19;99017.17;89570;1277;87601;-63
2022/02/22 05:57:32;;;;;;;7.50;2.40;;;;;;;4.49;75.30;99015.40;89545;1277;95485;-64
2022/02/22 05:59:41;;;;;;;5.60;1.90;;;;;;;4.49;75.07;99023.88;89564;1277;76628;-76
2022/02/22 06:01:47;;;;;;;3.10;1.30;;;;;;;4.47;75.02;99021.30;89576;1277;83021;-76
2022/02/22 06:03:53;;;;;;;4.90;1.70;;;;;;;4.43;75.06;99022.81;89555;1277;99706;-64
2022/02/22 06:05:59;;;;;;;6.10;2.00;;;;;;;4.39;74.95;99024.20;89542;1277;88128;-63
2022/02/22 06:08:07;;;;;;;3.80;1.60;;;;;;;4.36;75.30;99030.65;89566;1277;95231;-63
2022/02/22 06:10:16;;;;;;;5.80;1.60;;;;;;;4.36;75.08;99033.86;89574;1277;79695;-63
2022/02/22 06:12:25;;;;;;;5.40;1.80;;;;;;;4.36;75.25;99039.48;89571;1277;79642;-64
2022/02/22 06:14:34;;;;;;;4.90;1.70;;;;;;;4.40;75.27;99046.08;89594;1277;99206;-76
2022/02/22 06:16:39;;;;;;;5.90;2.20;;;;;;;4.48;75.23;99049.04;89405;1278;88879;-75
2022/02/22 06:18:45;;;;;;;6.30;1.90;;;;;;;4.50;75.22;99050.47;89557;1277;95663;-76
2022/02/22 06:20:51;;;;;;;4.20;1.70;;;;;;;4.57;75.11;99053.21;89556;1277;78882;-76
2022/02/22 06:23:00;;;;;;;8.20;1.60;;;;;;;4.60;75.20;99056.79;89588;1277;82784;-75
2022/02/22 06:25:09;;;;;;;6.60;1.70;;;;;;;4.63;75.16;99061.61;89566;1277;99572;-65
2022/02/22 06:27:18;;;;;;;7.30;1.70;;;;;;;4.66;75.28;99062.59;89570;1277;87667;-64
2022/02/22 06:29:24;;;;;;;6.90;2.30;;;;;;;4.68;75.15;99064.69;89573;1277;94325;-75
2022/02/22 06:31:32;;;;;;;6.90;3.40;;;;;;;4.70;74.99;99072.12;89574;1277;77559;-75
2022/02/22 06:33:39;;;;;;;5.50;2.20;;;;;;;4.70;75.03;99078.20;89381;1280;81739;-65
2022/02/22 06:35:49;;;;;;;4.70;2.10;;;;;;;4.69;75.10;99078.73;89576;1277;99989;-65
2022/02/22 06:37:55;;;;;;;6.30;2.00;;;;;;;4.67;75.11;99081.58;89234;1280;87868;-64
2022/02/22 06:40:01;;;;;;;39.00;21.00;;;;;;;4.69;75.10;99087.65;89383;1279;94233;-74
2022/02/22 06:42:11;;;;;;;11.80;5.70;;;;;;;4.77;75.15;99090.27;89556;1277;80827;-74
2022/02/22 06:44:18;;;;;;;6.50;2.30;;;;;;;4.80;75.11;99093.08;89596;1277;82731;-64
2022/02/22 06:46:27;;;;;;;6.20;2.00;;;;;;;4.88;75.10;99098.20;89569;1277;100222;-64
2022/02/22 06:48:33;;;;;;;5.90;2.20;;;;;;;4.91;75.11;99105.13;89365;1279;89533;-74
2022/02/22 06:50:39;;;;;;;4.90;2.10;;;;;;;4.95;75.03;99108.11;89574;1277;96006;-74
2022/02/22 06:52:45;;;;;;;7.30;2.20;;;;;;;4.98;75.27;99114.04;89384;1279;78273;-74
2022/02/22 06:54:53;;;;;;;6.20;2.20;;;;;;;4.95;75.11;99115.29;89390;1279;80665;-65
2022/02/22 06:56:59;;;;;;;7.30;2.30;;;;;;;4.96;75.20;99117.71;89583;1277;99110;-66
2022/02/22 06:59:07;;;;;;;6.20;2.10;;;;;;;4.96;74.89;99119.31;89591;1277;86967;-74
2022/02/22 07:01:13;;;;;;;6.20;2.20;;;;;;;4.97;75.04;99122.58;89554;1277;94779;-74
2022/02/22 07:03:22;;;;;;;4.20;2.10;;;;;;;4.99;74.99;99126.16;89355;1279;78947;-74
2022/02/22 07:05:30;;;;;;;5.20;2.30;;;;;;;5.00;75.15;99134.20;89589;1277;80801;-65
2022/02/22 07:07:36;;;;;;;4.70;2.20;;;;;;;5.00;75.19;99139.42;89361;1279;98837;-65
2022/02/22 07:09:45;;;;;;;7.00;2.40;;;;;;;5.03;75.07;99147.73;89384;1279;88034;-74
2022/02/22 07:11:50;;;;;;;5.60;2.20;;;;;;;5.05;75.38;99153.13;89562;1277;95751;-74
2022/02/22 07:13:56;;;;;;;7.40;2.00;;;;;;;5.04;75.37;99158.50;89539;1277;80211;-74
2022/02/22 07:16:05;;;;;;;5.60;2.10;;;;;;;4.99;75.47;99164.27;89549;1276;81886;-75
2022/02/22 07:18:14;;;;;;;6.40;2.20;;;;;;;4.98;75.72;99169.58;89379;1279;98737;-75
2022/02/22 07:20:24;;;;;;;6.20;2.10;;;;;;;4.91;75.79;99175.77;89551;1277;87461;-74
2022/02/22 07:22:33;;;;;;;8.30;2.30;;;;;;;4.84;75.98;99181.80;89350;1279;95596;-77
2022/02/22 07:24:42;;;;;;;6.30;2.10;;;;;;;4.73;76.26;99196.44;89339;1277;79144;-64
2022/02/22 07:26:51;;;;;;;8.00;2.70;;;;;;;4.68;76.20;99209.52;89549;1277;84467;-66
2022/02/22 07:28:56;;;;;;;4.90;1.90;;;;;;;4.64;76.41;99214.48;89523;1277;99120;-74
2022/02/22 07:31:02;;;;;;;6.60;2.80;;;;;;;4.66;76.66;99217.42;89551;1277;86953;-75
2022/02/22 07:33:09;;;;;;;7.10;2.80;;;;;;;4.73;76.95;99223.85;89529;1277;93584;-75
2022/02/22 07:35:16;;;;;;;7.10;2.20;;;;;;;4.94;77.14;99219.81;89521;1277;80870;-74
2022/02/22 07:37:25;;;;;;;3.50;1.90;;;;;;;5.21;77.14;99218.96;89512;1277;80792;-74
2022/02/22 07:39:34;;;;;;;5.60;1.70;;;;;;;5.31;76.87;99222.40;89532;1277;99507;-66
2022/02/22 07:41:40;;;;;;;5.20;1.90;;;;;;;5.41;76.93;99227.29;89535;1277;87427;-66
2022/02/22 07:43:51;;;;;;;3.80;1.70;;;;;;;5.50;76.98;99233.86;89436;1280;97221;-66
2022/02/22 07:45:57;;;;;;;8.00;2.30;;;;;;;5.54;77.00;99237.84;89527;1277;79059;-66
2022/02/22 07:48:03;;;;;;;8.00;2.30;;;;;;;5.53;76.79;99241.57;89540;1277;82487;-66
2022/02/22 07:50:10;;;;;;;6.80;2.70;;;;;;;5.49;77.08;99243.63;89525;1277;99481;-66
2022/02/22 07:52:16;;;;;;;5.70;2.20;;;;;;;5.35;76.88;99248.00;89527;1277;88888;-66
2022/02/22 07:54:25;;;;;;;6.50;2.60;;;;;;;5.25;76.99;99254.27;89549;1277;94482;-75
2022/02/22 07:56:34;;;;;;;4.80;2.30;;;;;;;5.17;76.76;99262.27;89537;1277;79967;-77
2022/02/22 07:58:41;;;;;;;6.30;2.70;;;;;;;5.16;77.00;99269.45;89539;1277;83614;-78
2022/02/22 08:00:50;;;;;;;7.60;2.70;;;;;;;5.16;76.96;99273.46;89380;1278;101362;-77
2022/02/22 08:02:59;;;;;;;7.60;2.80;;;;;;;5.16;77.03;99271.52;89549;1277;87597;-76
2022/02/22 08:05:09;;;;;;;6.00;3.00;;;;;;;5.14;77.09;99275.05;89527;1277;94511;-74
2022/02/22 08:07:20;;;;;;;7.90;2.70;;;;;;;5.21;77.15;99282.17;89531;1277;81929;-74
2022/02/22 08:09:29;;;;;;;6.90;2.50;;;;;;;5.23;77.09;99282.10;89549;1277;80683;-65
2022/02/22 08:11:35;;;;;;;4.30;2.00;;;;;;;5.23;77.24;99295.27;89430;1277;99661;-66
2022/02/22 08:13:42;;;;;;;6.80;3.30;;;;;;;5.16;77.43;99310.11;89512;1277;87260;-66
2022/02/22 08:15:51;;;;;;;4.90;2.60;;;;;;;5.07;77.32;99316.06;89492;1277;95421;-63
2022/02/22 08:17:57;;;;;;;7.20;1.70;;;;;;;5.02;77.61;99308.31;89472;1277;81610;-62
2022/02/22 08:20:09;;;;;;;6.10;2.40;;;;;;;5.10;77.45;99315.15;89422;1278;82405;-63
2022/02/22 08:22:18;;;;;;;6.20;2.20;;;;;;;5.10;77.47;99323.14;89495;1277;98764;-66
2022/02/22 08:24:25;;;;;;;6.10;3.20;;;;;;;5.09;77.38;99321.42;89528;1277;89083;-80
2022/02/22 08:26:30;;;;;;;8.10;3.50;;;;;;;5.09;77.43;99329.48;89501;1277;94780;-82
2022/02/22 08:28:40;;;;;;;7.20;3.50;;;;;;;5.11;77.20;99335.92;89544;1277;78077;-81
2022/02/22 08:30:46;;;;;;;6.40;2.80;;;;;;;5.04;77.38;99334.86;89536;1277;80173;-76
2022/02/22 08:32:55;;;;;;;9.10;3.80;;;;;;;5.03;77.57;99339.93;89554;1277;98126;-81
2022/02/22 08:35:06;;;;;;;8.20;4.30;;;;;;;4.90;77.61;99349.84;89541;1277;88879;-79
2022/02/22 08:37:12;;;;;;;6.80;2.30;;;;;;;4.86;77.60;99349.73;89377;1280;94687;-77
2022/02/22 08:39:24;;;;;;;3.10;2.20;;;;;;;4.77;77.91;99357.41;89512;1277;78662;-64
2022/02/22 08:41:29;;;;;;;7.10;2.80;;;;;;;4.81;77.81;99361.25;89482;1277;81451;-65
2022/02/22 08:43:36;;;;;;;7.00;2.70;;;;;;;4.82;77.66;99363.97;89511;1277;99962;-77
2022/02/22 08:45:43;;;;;;;5.70;2.50;;;;;;;4.78;77.54;99369.23;89520;1277;89099;-77
2022/02/22 08:47:49;;;;;;;9.40;2.90;;;;;;;4.81;77.66;99374.88;89500;1277;94634;-78
2022/02/22 08:49:58;;;;;;;6.10;2.80;;;;;;;4.86;77.79;99379.66;89526;1277;79477;-76
2022/02/22 08:52:04;;;;;;;5.90;3.10;;;;;;;4.87;77.79;99383.31;89539;1277;80898;-78
2022/02/22 08:54:10;;;;;;;7.60;3.20;;;;;;;4.97;77.74;99384.14;89514;1277;98208;-64
2022/02/22 08:56:16;;;;;;;7.30;3.50;;;;;;;5.02;77.81;99380.65;89511;1277;87107;-66
2022/02/22 08:58:21;;;;;;;7.80;3.40;;;;;;;5.12;77.53;99391.74;89489;1277;95452;-65
2022/02/22 09:00:28;;;;;;;9.20;3.90;;;;;;;5.19;77.57;99392.02;89491;1277;79028;-64
2022/02/22 09:02:34;;;;;;;7.90;3.90;;;;;;;5.19;77.58;99394.64;89487;1277;81560;-65
2022/02/22 09:04:40;;;;;;;7.70;4.30;;;;;;;5.28;77.46;99399.52;89488;1277;98393;-65
2022/02/22 09:06:48;;;;;;;6.70;3.50;;;;;;;5.30;77.20;99402.77;89503;1277;87059;-65
2022/02/22 09:08:53;;;;;;;7.30;3.50;;;;;;;5.28;77.13;99402.39;89483;1277;95746;-78
2022/02/22 09:10:59;;;;;;;10.50;3.50;;;;;;;5.21;76.97;99406.41;89480;1277;78207;-78
2022/02/22 09:13:08;;;;;;;7.30;3.80;;;;;;;5.19;76.96;99408.46;89499;1277;81112;-78
2022/02/22 09:15:19;;;;;;;9.20;4.20;;;;;;;5.10;76.88;99410.00;89493;1277;99129;-64
2022/02/22 09:17:25;;;;;;;6.20;3.20;;;;;;;5.10;76.81;99417.90;89487;1277;88053;-64
2022/02/22 09:19:31;;;;;;;9.30;3.70;;;;;;;5.14;76.77;99419.38;89489;1277;96092;-65
2022/02/22 09:21:36;;;;;;;8.20;4.10;;;;;;;5.24;76.84;99420.51;89485;1277;78360;-64
2022/02/22 09:23:42;;;;;;;8.50;4.40;;;;;;;5.32;76.74;99427.74;89498;1277;82722;-64
2022/02/22 09:25:47;;;;;;;8.60;3.60;;;;;;;5.39;76.64;99425.73;89511;1277;98316;-64
2022/02/22 09:27:53;;;;;;;5.20;2.50;;;;;;;5.69;76.77;99432.88;89482;1277;88349;-65
2022/02/22 09:29:59;;;;;;;6.10;3.00;;;;;;;6.01;76.47;99432.46;89482;1277;95641;-64
2022/02/22 09:32:06;;;;;;;5.60;2.80;;;;;;;6.18;75.98;99433.50;89496;1277;77771;-65
2022/02/22 09:34:11;;;;;;;6.60;2.90;;;;;;;6.28;75.69;99438.35;89505;1277;80588;-78
2022/02/22 09:36:17;;;;;;;7.20;3.20;;;;;;;6.23;75.20;99440.63;89489;1277;99276;-78
2022/02/22 09:38:26;;;;;;;6.40;3.00;;;;;;;6.23;75.21;99443.71;89474;1277;89579;-78
2022/02/22 09:40:33;;;;;;;7.20;3.40;;;;;;;6.37;75.16;99442.46;89505;1277;94726;-64
2022/02/22 09:42:40;;;;;;;6.80;3.30;;;;;;;6.83;74.88;99448.21;89491;1277;79697;-64
2022/02/22 09:44:45;;;;;;;8.30;3.20;;;;;;;7.24;74.48;99449.41;89488;1277;81738;-77
2022/02/22 09:46:52;;;;;;;6.10;2.90;;;;;;;7.52;73.98;99444.15;89481;1277;99594;-78
2022/02/22 09:48:58;;;;;;;7.20;3.90;;;;;;;7.88;73.46;99443.02;89496;1277;88469;-78
2022/02/22 09:51:04;;;;;;;8.60;3.30;;;;;;;8.38;73.40;99440.48;89470;1277;94241;-77
2022/02/22 09:53:09;;;;;;;7.10;3.10;;;;;;;8.66;72.98;99442.69;89476;1277;78256;-76
2022/02/22 09:55:15;;;;;;;5.50;1.90;;;;;;;8.63;71.92;99442.91;89510;1277;82557;-77
2022/02/22 09:57:22;;;;;;;3.90;2.00;;;;;;;8.53;70.61;99448.78;89477;1277;98765;-78
2022/02/22 09:59:27;;;;;;;4.00;1.70;;;;;;;8.30;69.64;99452.12;89501;1277;89572;-77
2022/02/22 10:01:42;;;;;;;5.40;2.00;;;;;;;8.20;69.18;99455.02;89474;1277;94865;-78
2022/02/22 10:03:59;;;;;;;6.30;2.30;;;;;;;8.27;69.21;99461.45;89489;1277;79595;-65
2022/02/22 10:06:05;;;;;;;4.90;1.80;;;;;;;8.42;69.03;99465.03;89487;1277;80285;-65